createdAt,value
2019-03-28T00:01:19.858Z,153.67
2019-03-28T00:03:48.082Z,156.20
2019-03-28T00:06:16.585Z,151.27
2019-03-28T00:08:45.088Z,165.53
2019-03-28T00:11:13.403Z,152.37
2019-03-28T00:13:41.886Z,165.83
2019-03-28T00:16:10.454Z,155.53
2019-03-28T00:18:38.783Z,154.27
2019-03-28T00:21:07.257Z,156.20
2019-03-28T00:23:54.040Z,156.27
2019-03-28T00:26:30.023Z,163.57
2019-03-28T00:28:52.722Z,159.93
2019-03-28T00:31:21.202Z,173.53
2019-03-28T00:33:49.631Z,157.80
2019-03-28T00:36:19.831Z,161.03
2019-03-28T00:38:50.130Z,167.77
2019-03-28T00:41:18.662Z,165.13
2019-03-28T00:43:46.841Z,162.23
2019-03-28T00:46:15.074Z,156.97
2019-03-28T00:48:43.247Z,161.43
2019-03-28T00:51:11.735Z,160.60
2019-03-28T00:53:40.276Z,161.97
2019-03-28T00:56:08.466Z,155.47
2019-03-28T00:58:36.706Z,164.57
2019-03-28T01:01:05.307Z,159.10
2019-03-28T01:03:33.525Z,170.20
2019-03-28T01:06:01.778Z,158.20
2019-03-28T01:08:30.327Z,158.97
2019-03-28T01:10:58.816Z,161.10
2019-03-28T01:13:27.307Z,169.07
2019-03-28T01:15:55.604Z,159.33
2019-03-28T01:18:23.861Z,159.17
2019-03-28T01:20:55.038Z,155.10
2019-03-28T01:23:23.274Z,156.70
2019-03-28T01:25:51.757Z,161.33
2019-03-28T01:28:20.255Z,158.73
2019-03-28T01:30:48.792Z,156.33
2019-03-28T01:33:17.048Z,155.97
2019-03-28T01:35:45.538Z,160.93
2019-03-28T01:38:13.785Z,155.73
2019-03-28T01:40:42.226Z,151.03
2019-03-28T01:43:10.399Z,154.67
2019-03-28T01:45:38.736Z,156.17
2019-03-28T01:48:07.164Z,158.63
2019-03-28T01:50:35.656Z,150.37
2019-03-28T01:53:03.954Z,153.53
2019-03-28T01:55:32.153Z,157.50
2019-03-28T01:58:00.638Z,168.90
2019-03-28T02:00:28.881Z,160.87
2019-03-28T02:02:57.362Z,152.07
2019-03-28T02:05:25.612Z,163.63
2019-03-28T02:07:53.848Z,161.63
2019-03-28T02:10:22.022Z,153.37
2019-03-28T02:12:50.585Z,161.37
2019-03-28T02:15:18.878Z,153.90
2019-03-28T02:17:47.048Z,166.20
2019-03-28T02:20:15.228Z,167.63
2019-03-28T02:22:43.774Z,157.03
2019-03-28T02:25:12.258Z,162.57
2019-03-28T02:27:40.528Z,178.60
2019-03-28T02:30:08.998Z,166.23
2019-03-28T02:32:37.425Z,196.13
2019-03-28T02:35:06.068Z,158.47
2019-03-28T02:37:34.371Z,158.70
2019-03-28T02:40:02.935Z,155.10
2019-03-28T02:42:31.340Z,153.60
2019-03-28T02:44:59.578Z,159.73
2019-03-28T02:47:27.739Z,155.63
2019-03-28T02:49:56.145Z,151.93
2019-03-28T02:52:24.527Z,161.00
2019-03-28T02:54:52.703Z,158.50
2019-03-28T02:57:20.942Z,156.47
2019-03-28T02:59:49.182Z,154.47
2019-03-28T03:02:17.792Z,152.83
2019-03-28T03:04:46.202Z,147.30
2019-03-28T03:07:14.468Z,149.10
2019-03-28T03:09:42.642Z,158.20
2019-03-28T03:12:11.204Z,156.30
2019-03-28T03:14:39.756Z,162.20
2019-03-28T03:17:07.946Z,153.67
2019-03-28T03:19:36.114Z,158.10
2019-03-28T03:22:04.651Z,151.23
2019-03-28T03:24:33.150Z,167.13
2019-03-28T03:27:01.405Z,159.07
2019-03-28T03:29:29.698Z,151.10
2019-03-28T03:31:58.218Z,154.20
2019-03-28T03:34:26.622Z,152.60
2019-03-28T03:36:54.999Z,163.97
2019-03-28T03:39:23.169Z,161.67
2019-03-28T03:41:51.577Z,161.97
2019-03-28T03:44:19.902Z,149.50
2019-03-28T03:46:48.460Z,166.00
2019-03-28T03:49:16.715Z,155.77
2019-03-28T03:51:46.657Z,159.67
2019-03-28T03:54:14.973Z,156.00
2019-03-28T03:56:43.456Z,161.87
2019-03-28T03:59:12.134Z,157.80
2019-03-28T04:01:40.431Z,161.93
2019-03-28T04:04:09.028Z,159.37
2019-03-28T04:06:37.743Z,158.03
2019-03-28T04:09:06.405Z,165.83
2019-03-28T04:11:34.756Z,152.27
2019-03-28T04:14:04.270Z,158.40
2019-03-28T04:16:32.787Z,163.33
2019-03-28T04:19:01.070Z,175.93
2019-03-28T04:21:29.408Z,175.90
2019-03-28T04:23:57.828Z,173.10
2019-03-28T04:26:27.067Z,164.00
2019-03-28T04:28:55.543Z,166.13
2019-03-28T04:31:23.888Z,192.37
2019-03-28T04:33:52.270Z,173.73
2019-03-28T04:36:21.334Z,170.13
2019-03-28T04:38:50.543Z,164.13
2019-03-28T04:41:19.382Z,160.30
2019-03-28T04:43:47.796Z,153.87
2019-03-28T04:46:17.343Z,158.70
2019-03-28T04:48:45.694Z,162.20
2019-03-28T04:51:14.267Z,171.43
2019-03-28T04:53:42.792Z,199.90
2019-03-28T04:56:11.064Z,174.60
2019-03-28T04:58:44.757Z,170.60
2019-03-28T05:01:09.426Z,152.13
2019-03-28T05:03:37.946Z,176.50
2019-03-28T05:06:06.608Z,163.10
2019-03-28T05:08:34.951Z,175.33
2019-03-28T05:11:03.333Z,179.50
2019-03-28T05:13:32.054Z,151.87
2019-03-28T05:16:00.714Z,148.83
2019-03-28T05:18:29.131Z,185.03
2019-03-28T05:20:57.782Z,174.80
2019-03-28T05:23:26.463Z,184.47
2019-03-28T05:25:54.808Z,164.20
2019-03-28T05:28:23.386Z,161.40
2019-03-28T05:30:51.974Z,159.90
2019-03-28T05:33:20.259Z,169.90
2019-03-28T05:35:48.694Z,180.83
2019-03-28T05:38:17.364Z,172.53
2019-03-28T05:40:45.646Z,167.90
2019-03-28T05:43:14.060Z,183.43
2019-03-28T05:45:42.420Z,188.87
2019-03-28T05:48:11.987Z,162.33
2019-03-28T05:50:40.390Z,170.90
2019-03-28T05:53:08.925Z,170.23
2019-03-28T05:55:37.394Z,180.47
2019-03-28T05:58:05.639Z,165.20
2019-03-28T06:00:33.897Z,167.70
2019-03-28T06:03:02.149Z,187.13
2019-03-28T06:05:30.624Z,175.87
2019-03-28T06:07:59.118Z,180.47
2019-03-28T06:10:27.358Z,168.47
2019-03-28T06:12:56.068Z,175.50
2019-03-28T06:15:24.495Z,196.40
2019-03-28T06:17:53.046Z,188.20
2019-03-28T06:20:21.368Z,195.70
2019-03-28T06:22:49.849Z,189.80
2019-03-28T06:25:18.120Z,161.33
2019-03-28T06:27:46.648Z,199.13
2019-03-28T06:30:14.901Z,210.80
2019-03-28T06:32:43.628Z,185.07
2019-03-28T06:35:12.561Z,179.63
2019-03-28T06:37:40.777Z,195.87
2019-03-28T06:40:09.134Z,183.33
2019-03-28T06:42:37.438Z,192.13
2019-03-28T06:45:08.993Z,152.83
2019-03-28T06:47:37.179Z,162.37
2019-03-28T06:50:07.226Z,174.93
2019-03-28T06:52:35.478Z,179.20
2019-03-28T06:55:04.344Z,166.00
2019-03-28T06:57:32.898Z,182.57
2019-03-28T07:00:01.456Z,165.40
2019-03-28T07:02:29.631Z,183.67
2019-03-28T07:04:57.937Z,176.30
2019-03-28T07:07:26.181Z,178.93
2019-03-28T07:09:54.674Z,186.87
2019-03-28T07:12:22.927Z,170.17
2019-03-28T07:14:51.101Z,179.37
2019-03-28T07:17:19.392Z,197.00
2019-03-28T07:19:47.833Z,324.53
2019-03-28T07:22:16.314Z,26.83
2019-03-28T07:24:44.489Z,238.47
2019-03-28T07:27:12.797Z,204.90
2019-03-28T07:29:50.836Z,212.30
2019-03-28T07:32:11.648Z,229.33
2019-03-28T07:34:40.342Z,263.80
2019-03-28T07:37:08.921Z,221.20
2019-03-28T07:39:37.546Z,156.10
2019-03-28T07:42:06.093Z,40.50
2019-03-28T07:44:37.403Z,90.70
2019-03-28T07:47:04.782Z,240.73
2019-03-28T07:49:33.336Z,257.73
2019-03-28T07:52:02.877Z,228.40
2019-03-28T07:54:31.366Z,244.37
2019-03-28T07:56:59.979Z,247.10
2019-03-28T07:59:28.469Z,247.20
2019-03-28T08:01:56.970Z,239.73
2019-03-28T08:04:25.524Z,205.67
2019-03-28T08:06:54.103Z,232.93
2019-03-28T08:09:35.790Z,234.77
2019-03-28T08:11:52.987Z,247.23
2019-03-28T08:14:21.498Z,237.07
2019-03-28T08:16:50.083Z,256.53
2019-03-28T08:19:18.632Z,361.43
2019-03-28T08:21:47.131Z,220.83
2019-03-28T08:24:15.705Z,231.70
2019-03-28T08:26:44.317Z,241.47
2019-03-28T08:29:12.826Z,252.00
2019-03-28T08:31:42.961Z,263.67
2019-03-28T08:34:11.591Z,233.77
2019-03-28T08:36:40.005Z,252.17
2019-03-28T08:39:08.505Z,254.27
2019-03-28T08:41:37.059Z,252.87
2019-03-28T08:44:07.284Z,249.30
2019-03-28T08:46:35.683Z,232.77
2019-03-28T08:49:04.315Z,257.00
2019-03-28T08:51:32.879Z,248.17
2019-03-28T08:54:01.334Z,251.40
2019-03-28T08:56:29.878Z,254.40
2019-03-28T08:58:58.441Z,213.17
2019-03-28T09:01:27.601Z,218.90
2019-03-28T09:03:56.162Z,204.93
2019-03-28T09:06:24.580Z,103.23
2019-03-28T09:08:53.175Z,45.10
2019-03-28T09:11:21.767Z,42.07
2019-03-28T09:13:50.217Z,37.93
2019-03-28T09:16:18.614Z,52.03
2019-03-28T09:18:47.140Z,52.77
2019-03-28T09:21:15.649Z,40.13
2019-03-28T09:23:44.123Z,49.17
2019-03-28T09:26:12.828Z,45.30
2019-03-28T09:28:41.366Z,99.83
2019-03-28T09:31:19.737Z,130.53
2019-03-28T09:33:40.880Z,162.87
2019-03-28T09:36:09.963Z,111.70
2019-03-28T09:38:38.606Z,187.97
2019-03-28T09:41:07.135Z,102.70
2019-03-28T09:43:35.618Z,111.67
2019-03-28T09:46:04.026Z,38.17
2019-03-28T09:48:32.581Z,64.90
2019-03-28T09:51:01.138Z,28.77
2019-03-28T09:53:29.763Z,39.23
2019-03-28T09:55:58.317Z,48.57
2019-03-28T09:58:26.883Z,33.03
2019-03-28T10:01:02.839Z,38.23
2019-03-28T10:03:25.761Z,36.83
2019-03-28T10:05:54.553Z,32.77
2019-03-28T10:08:23.279Z,32.80
2019-03-28T10:10:51.960Z,33.03
2019-03-28T10:13:20.609Z,34.77
2019-03-28T10:15:49.086Z,35.33
2019-03-28T10:18:17.727Z,36.20
2019-03-28T10:20:46.256Z,29.37
2019-03-28T10:23:14.836Z,32.47
2019-03-28T10:25:43.460Z,31.80
2019-03-28T10:28:12.032Z,29.20
2019-03-28T10:30:42.897Z,28.27
2019-03-28T10:33:11.480Z,29.57
2019-03-28T10:35:40.130Z,30.53
2019-03-28T10:38:08.709Z,33.30
2019-03-28T10:40:37.398Z,25.73
2019-03-28T10:43:06.022Z,25.73
2019-03-28T10:45:34.724Z,35.03
2019-03-28T10:48:03.346Z,33.50
2019-03-28T10:50:40.784Z,30.03
2019-03-28T10:53:02.184Z,21.97
2019-03-28T10:55:30.800Z,20.37
2019-03-28T10:58:00.399Z,182.53
2019-03-28T11:00:28.961Z,26.20
2019-03-28T11:02:57.772Z,25.33
2019-03-28T11:05:26.338Z,19.97
2019-03-28T11:07:54.923Z,47.23
2019-03-28T11:10:23.619Z,32.00
2019-03-28T11:12:52.166Z,23.50
2019-03-28T11:15:20.719Z,24.67
2019-03-28T11:17:49.401Z,27.70
2019-03-28T11:20:18.048Z,28.93
2019-03-28T11:22:46.531Z,28.63
2019-03-28T11:25:15.136Z,27.83
2019-03-28T11:27:43.702Z,29.83
2019-03-28T11:30:12.261Z,25.10
2019-03-28T11:32:40.806Z,25.27
2019-03-28T11:35:09.353Z,21.17
2019-03-28T11:37:37.845Z,30.63
2019-03-28T11:40:09.642Z,25.07
2019-03-28T11:42:38.279Z,35.57
2019-03-28T11:45:09.496Z,34.00
2019-03-28T11:47:38.122Z,32.87
2019-03-28T11:50:08.066Z,24.33
2019-03-28T11:52:36.784Z,33.40
2019-03-28T11:55:07.298Z,22.30
2019-03-28T11:57:36.823Z,25.97
2019-03-28T12:00:12.705Z,22.80
2019-03-28T12:02:41.334Z,25.37
2019-03-28T12:05:10.780Z,28.07
2019-03-28T12:07:39.461Z,23.50
2019-03-28T12:10:10.326Z,20.47
2019-03-28T12:12:38.992Z,23.97
2019-03-28T12:15:07.845Z,22.27
2019-03-28T12:17:36.391Z,23.47
2019-03-28T12:20:09.542Z,28.60
2019-03-28T12:22:38.054Z,37.40
2019-03-28T12:25:06.686Z,31.00
2019-03-28T12:27:35.307Z,28.53
2019-03-28T12:30:05.876Z,26.77
2019-03-28T12:32:34.294Z,51.13
2019-03-28T12:35:02.806Z,59.77
2019-03-28T12:37:31.434Z,37.47
2019-03-28T12:40:00.208Z,244.47
2019-03-28T12:42:28.937Z,105.80
2019-03-28T12:44:58.884Z,19.30
2019-03-28T12:47:41.287Z,25.43
2019-03-28T12:49:57.742Z,23.33
2019-03-28T12:52:29.596Z,23.00
2019-03-28T12:54:56.685Z,32.40
2019-03-28T12:57:25.369Z,28.50
2019-03-28T12:59:54.019Z,29.43
2019-03-28T13:02:30.183Z,21.90
2019-03-28T13:04:53.914Z,24.43
2019-03-28T13:07:22.564Z,32.13
2019-03-28T13:09:51.131Z,36.07
2019-03-28T13:12:19.779Z,25.93
2019-03-28T13:14:48.754Z,22.97
2019-03-28T13:17:17.277Z,31.63
2019-03-28T13:19:46.003Z,28.20
2019-03-28T13:22:14.735Z,31.90
2019-03-28T13:24:43.291Z,29.10
2019-03-28T13:27:13.424Z,33.13
2019-03-28T13:29:42.103Z,22.50
2019-03-28T13:32:10.779Z,23.57
2019-03-28T13:34:39.398Z,22.93
2019-03-28T13:37:08.103Z,12.27
2019-03-28T13:39:36.633Z,19.57
2019-03-28T13:42:05.180Z,28.90
2019-03-28T13:44:33.796Z,44.53
2019-03-28T13:47:02.574Z,22.73
2019-03-28T13:49:31.134Z,20.97
2019-03-28T13:51:59.680Z,27.07
2019-03-28T13:54:28.250Z,17.60
2019-03-28T13:56:56.866Z,25.73
2019-03-28T13:59:25.614Z,33.27
2019-03-28T14:01:54.175Z,30.47
2019-03-28T14:04:23.694Z,23.17
2019-03-28T14:06:52.767Z,23.00
2019-03-28T14:09:23.272Z,24.57
2019-03-28T14:11:51.667Z,20.00
2019-03-28T14:14:20.322Z,15.57
2019-03-28T14:16:49.788Z,20.30
2019-03-28T14:19:19.168Z,29.80
2019-03-28T14:21:47.781Z,26.83
2019-03-28T14:24:16.340Z,19.53
2019-03-28T14:26:44.900Z,17.03
2019-03-28T14:29:13.448Z,25.87
2019-03-28T14:31:42.000Z,17.37
2019-03-28T14:34:10.551Z,28.43
2019-03-28T14:36:39.168Z,23.53
2019-03-28T14:39:07.945Z,17.80
2019-03-28T14:41:36.534Z,13.60
2019-03-28T14:44:05.146Z,21.23
2019-03-28T14:46:33.774Z,17.33
2019-03-28T14:49:02.391Z,15.43
2019-03-28T14:51:30.963Z,21.73
2019-03-28T14:53:59.450Z,28.57
2019-03-28T14:56:28.024Z,22.37
2019-03-28T14:58:56.549Z,18.00
2019-03-28T15:01:26.828Z,17.23
2019-03-28T15:03:55.257Z,27.03
2019-03-28T15:06:24.915Z,25.67
2019-03-28T15:08:53.885Z,28.57
2019-03-28T15:11:22.389Z,25.40
2019-03-28T15:13:51.019Z,31.83
2019-03-28T15:16:19.578Z,44.03
2019-03-28T15:18:48.156Z,51.20
2019-03-28T15:21:16.983Z,35.37
2019-03-28T15:23:45.543Z,35.47
2019-03-28T15:26:14.037Z,32.57
2019-03-28T15:28:42.721Z,30.47
2019-03-28T15:31:11.279Z,25.20
2019-03-28T15:33:40.211Z,17.97
2019-03-28T15:36:08.965Z,24.17
2019-03-28T15:41:15.992Z,176.37
2019-03-28T15:43:44.467Z,216.30
2019-03-28T15:46:12.771Z,211.87
2019-03-28T15:48:41.124Z,244.57
2019-03-28T15:51:09.789Z,231.93
2019-03-28T15:53:38.501Z,204.93
2019-03-28T15:56:07.162Z,197.73
2019-03-28T15:58:35.484Z,212.97
2019-03-28T16:01:04.197Z,210.67
2019-03-28T16:03:32.614Z,222.97
2019-03-28T16:06:01.189Z,220.27
2019-03-28T16:08:29.844Z,260.43
2019-03-28T16:10:58.596Z,234.33
2019-03-28T16:13:27.187Z,242.80
2019-03-28T16:15:55.747Z,234.50
2019-03-28T16:18:24.313Z,243.80
2019-03-28T16:20:53.527Z,253.23
2019-03-28T16:23:22.212Z,276.50
2019-03-28T16:25:50.525Z,272.80
2019-03-28T16:28:19.182Z,239.40
2019-03-28T16:30:47.864Z,240.13
2019-03-28T16:33:16.726Z,213.93
2019-03-28T16:35:45.289Z,199.03
2019-03-28T16:38:13.863Z,201.30
2019-03-28T16:40:42.600Z,236.23
2019-03-28T16:43:11.661Z,229.27
2019-03-28T16:45:40.282Z,226.77
2019-03-28T16:48:09.001Z,225.07
2019-03-28T16:50:37.673Z,219.90
2019-03-28T16:53:06.289Z,224.87
2019-03-28T16:55:34.974Z,218.57
2019-03-28T16:58:03.560Z,236.83
2019-03-28T17:00:39.568Z,311.83
2019-03-28T17:03:08.249Z,265.80
2019-03-28T17:05:36.938Z,218.97
2019-03-28T17:08:06.660Z,224.33
2019-03-28T17:10:44.251Z,219.47
2019-03-28T17:13:13.039Z,238.70
2019-03-28T17:15:41.691Z,235.07
2019-03-28T17:18:10.199Z,251.20
2019-03-28T17:20:38.868Z,244.37
2019-03-28T17:23:07.512Z,158.87
2019-03-28T17:25:36.093Z,117.53
2019-03-28T17:28:04.794Z,117.00
2019-03-28T17:30:33.294Z,206.67
2019-03-28T17:33:02.321Z,105.03
2019-03-28T17:35:30.961Z,177.43
2019-03-28T17:37:59.570Z,174.80
2019-03-28T17:40:28.311Z,96.47
2019-03-28T17:42:57.122Z,164.03
2019-03-28T17:45:25.946Z,56.43
2019-03-28T17:47:54.758Z,45.30
2019-03-28T17:50:23.521Z,46.80
2019-03-28T17:52:52.140Z,75.40
2019-03-28T17:55:20.812Z,36.67
2019-03-28T17:57:49.629Z,28.40
2019-03-28T18:00:18.325Z,38.33
2019-03-28T18:02:47.129Z,227.20
2019-03-28T18:05:16.048Z,181.33
2019-03-28T18:07:44.878Z,215.10
2019-03-28T18:10:13.519Z,222.47
2019-03-28T18:12:42.243Z,16.67
2019-03-28T18:15:11.556Z,10.73
2019-03-28T18:17:40.261Z,25.40
2019-03-28T18:20:09.304Z,19.07
2019-03-28T18:22:38.013Z,21.23
2019-03-28T18:25:07.917Z,15.47
2019-03-28T18:27:37.319Z,177.50
2019-03-28T18:30:09.107Z,155.70
2019-03-28T18:32:39.547Z,210.07
2019-03-28T18:35:08.523Z,181.80
2019-03-28T18:37:37.335Z,184.93
2019-03-28T18:40:06.368Z,225.37
2019-03-28T18:42:35.231Z,238.67
2019-03-28T18:45:04.638Z,206.57
2019-03-28T18:47:33.333Z,223.50
2019-03-28T18:50:03.845Z,200.33
2019-03-28T18:52:32.257Z,175.83
2019-03-28T18:55:00.691Z,183.17
2019-03-28T18:57:29.133Z,203.30
2019-03-28T18:59:58.686Z,182.53
2019-03-28T19:02:27.128Z,234.50
2019-03-28T19:04:55.930Z,238.97
2019-03-28T19:07:25.252Z,237.80
2019-03-28T19:09:55.243Z,198.57
2019-03-28T19:12:23.683Z,203.43
2019-03-28T19:14:52.043Z,197.60
2019-03-28T19:17:20.390Z,201.30
2019-03-28T19:19:48.828Z,211.37
2019-03-28T19:22:17.623Z,222.30
2019-03-28T19:24:46.304Z,194.90
2019-03-28T19:27:15.585Z,200.63
2019-03-28T19:29:43.890Z,205.70
2019-03-28T19:32:12.203Z,201.77
2019-03-28T19:34:40.544Z,210.87
2019-03-28T19:37:08.911Z,189.63
2019-03-28T19:39:37.235Z,191.63
2019-03-28T19:42:05.657Z,482.27
2019-03-28T19:44:34.152Z,75.47
2019-03-28T19:47:02.838Z,26.37
2019-03-28T19:49:31.538Z,26.37
2019-03-28T19:52:00.346Z,18.87
2019-03-28T19:54:28.855Z,35.30
2019-03-28T19:56:57.606Z,26.67
2019-03-28T19:59:26.276Z,19.47
2019-03-28T20:01:54.943Z,22.67
2019-03-28T20:04:23.659Z,29.17
2019-03-28T20:06:53.857Z,27.90
2019-03-28T20:09:24.120Z,31.00
2019-03-28T20:11:53.022Z,25.37
2019-03-28T20:14:21.699Z,33.30
2019-03-28T20:16:50.396Z,29.10
2019-03-28T20:19:19.095Z,31.07
2019-03-28T20:21:47.655Z,30.67
2019-03-28T20:24:16.231Z,32.37
2019-03-28T20:26:47.177Z,35.37
2019-03-28T20:29:16.012Z,36.60
2019-03-28T20:31:45.152Z,31.00
2019-03-28T20:34:16.128Z,31.27
2019-03-28T20:36:44.716Z,34.50
2019-03-28T20:39:13.287Z,22.90
2019-03-28T20:41:43.133Z,28.40
2019-03-28T20:44:11.940Z,35.47
2019-03-28T20:46:41.000Z,29.30
2019-03-28T20:49:09.797Z,34.30
2019-03-28T20:51:38.445Z,37.83
2019-03-28T20:54:07.872Z,26.53
2019-03-28T20:56:36.720Z,32.27
2019-03-28T20:59:05.372Z,26.50
2019-03-28T21:01:33.943Z,30.17
2019-03-28T21:04:02.600Z,28.50
2019-03-28T21:06:31.094Z,27.73
2019-03-28T21:08:59.663Z,30.17
2019-03-28T21:11:29.634Z,28.63
2019-03-28T21:13:58.433Z,28.43
2019-03-28T21:16:26.986Z,28.23
2019-03-28T21:18:55.687Z,32.20
2019-03-28T21:21:24.249Z,35.80
2019-03-28T21:23:52.805Z,32.97
2019-03-28T21:26:21.994Z,31.70
2019-03-28T21:28:51.125Z,23.77
2019-03-28T21:31:19.955Z,27.63
2019-03-28T21:33:48.718Z,26.67
2019-03-28T21:36:28.879Z,30.30
2019-03-28T21:38:49.180Z,33.87
2019-03-28T21:41:17.832Z,29.07
2019-03-28T21:43:48.065Z,34.33
2019-03-28T21:46:16.702Z,40.93
2019-03-28T21:48:45.460Z,43.77
2019-03-28T21:51:14.687Z,44.93
2019-03-28T21:53:45.183Z,47.80
2019-03-28T21:56:14.448Z,38.77
2019-03-28T21:58:43.011Z,55.77
2019-03-28T22:01:11.658Z,40.80
2019-03-28T22:03:40.373Z,42.93
2019-03-28T22:06:09.024Z,40.60
2019-03-28T22:08:38.464Z,42.83
2019-03-28T22:11:07.818Z,47.30
2019-03-28T22:13:36.989Z,42.33
2019-03-28T22:16:07.810Z,43.00
2019-03-28T22:18:36.626Z,41.97
2019-03-28T22:21:05.131Z,36.13
2019-03-28T22:23:33.684Z,44.40
2019-03-28T22:26:02.280Z,41.87
2019-03-28T22:28:30.762Z,44.07
2019-03-28T22:30:59.406Z,42.27
2019-03-28T22:33:28.034Z,39.47
2019-03-28T22:35:56.548Z,37.57
2019-03-28T22:38:25.033Z,45.50
2019-03-28T22:40:53.998Z,51.63
2019-03-28T22:43:22.491Z,78.93
2019-03-28T22:45:51.057Z,132.10
2019-03-28T22:48:19.687Z,41.07
2019-03-28T22:50:48.169Z,43.80
2019-03-28T22:53:17.073Z,230.90
2019-03-28T22:55:45.699Z,218.13
2019-03-28T22:58:14.661Z,215.33
2019-03-28T23:00:47.854Z,213.90
2019-03-28T23:03:17.238Z,269.33
2019-03-28T23:05:45.744Z,242.67
2019-03-28T23:08:14.253Z,238.57
2019-03-28T23:10:42.790Z,216.90
2019-03-28T23:13:11.213Z,216.70
2019-03-28T23:15:39.708Z,302.57
2019-03-28T23:18:08.316Z,220.97
2019-03-28T23:20:36.828Z,33.27
2019-03-28T23:23:05.304Z,23.47
2019-03-28T23:25:37.060Z,23.37
2019-03-28T23:28:05.780Z,22.10
2019-03-28T23:30:34.260Z,21.60
2019-03-28T23:33:02.815Z,23.57
2019-03-28T23:35:31.371Z,29.80
2019-03-28T23:37:59.916Z,23.77
2019-03-28T23:40:29.921Z,22.77
2019-03-28T23:42:58.748Z,25.97
2019-03-28T23:45:27.345Z,26.33
2019-03-28T23:47:55.929Z,23.30
2019-03-28T23:50:24.652Z,22.23
2019-03-28T23:52:53.142Z,20.07
2019-03-28T23:55:21.757Z,22.70
2019-03-28T23:57:50.311Z,26.03
